createdAt,value
2019-02-07T00:00:26.065Z,4.40
2019-02-07T00:02:54.679Z,5.10
2019-02-07T00:05:23.404Z,5.17
2019-02-07T00:07:52.023Z,3.43
2019-02-07T00:10:21.512Z,3.93
2019-02-07T00:12:50.135Z,5.13
2019-02-07T00:15:18.760Z,3.17
2019-02-07T00:17:47.422Z,4.30
2019-02-07T00:20:20.212Z,3.97
2019-02-07T00:22:50.578Z,3.40
2019-02-07T00:25:19.264Z,4.60
2019-02-07T00:27:47.953Z,4.80
2019-02-07T00:30:21.111Z,5.30
2019-02-07T00:32:49.782Z,4.40
2019-02-07T00:35:18.537Z,4.30
2019-02-07T00:37:47.405Z,3.90
2019-02-07T00:40:21.196Z,5.40
2019-02-07T00:42:49.870Z,5.33
2019-02-07T00:45:19.684Z,4.10
2019-02-07T00:47:49.207Z,3.17
2019-02-07T00:50:18.694Z,3.03
2019-02-07T00:52:47.307Z,3.50
2019-02-07T00:55:18.239Z,4.73
2019-02-07T00:57:46.850Z,4.03
2019-02-07T01:00:18.510Z,4.40
2019-02-07T01:02:47.145Z,4.63
2019-02-07T01:05:16.226Z,3.63
2019-02-07T01:07:45.285Z,3.43
2019-02-07T01:10:17.020Z,6.40
2019-02-07T01:12:45.645Z,5.20
2019-02-07T01:15:14.747Z,3.80
2019-02-07T01:17:43.461Z,3.70
2019-02-07T01:20:14.830Z,2.97
2019-02-07T01:22:43.499Z,5.60
2019-02-07T01:25:15.188Z,4.77
2019-02-07T01:27:43.891Z,4.97
2019-02-07T01:30:15.276Z,4.03
2019-02-07T01:32:43.943Z,4.00
2019-02-07T01:35:12.612Z,8.10
2019-02-07T01:37:41.311Z,7.87
2019-02-07T01:40:13.279Z,8.60
2019-02-07T01:42:43.361Z,7.60
2019-02-07T01:45:15.057Z,5.33
2019-02-07T01:47:43.675Z,5.67
2019-02-07T01:50:15.391Z,7.20
2019-02-07T01:52:44.156Z,5.37
2019-02-07T01:55:13.454Z,4.43
2019-02-07T01:57:42.067Z,4.93
2019-02-07T02:00:16.603Z,4.70
2019-02-07T02:02:45.305Z,4.67
2019-02-07T02:05:15.511Z,2.80
2019-02-07T02:07:44.802Z,4.23
2019-02-07T02:10:19.008Z,4.17
2019-02-07T02:12:47.675Z,3.00
2019-02-07T02:15:24.487Z,2.63
2019-02-07T02:17:49.329Z,3.93
2019-02-07T02:20:25.383Z,4.10
2019-02-07T02:22:55.383Z,4.50
2019-02-07T02:25:24.166Z,3.87
2019-02-07T02:27:52.803Z,3.60
2019-02-07T02:30:26.579Z,3.20
2019-02-07T02:32:55.195Z,2.50
2019-02-07T02:35:24.264Z,2.80
2019-02-07T02:37:52.938Z,4.20
2019-02-07T02:40:21.573Z,3.83
2019-02-07T02:42:50.252Z,3.80
2019-02-07T02:45:21.583Z,3.40
2019-02-07T02:47:51.722Z,3.17
2019-02-07T02:50:21.011Z,3.50
2019-02-07T02:52:49.688Z,3.70
2019-02-07T02:55:29.092Z,4.23
2019-02-07T02:57:57.697Z,3.43
2019-02-07T03:00:28.064Z,3.27
2019-02-07T03:03:01.474Z,2.70
2019-02-07T03:05:47.802Z,3.37
2019-02-07T03:08:26.855Z,3.50
2019-02-07T03:11:09.582Z,4.40
2019-02-07T03:13:39.823Z,3.33
2019-02-07T03:16:10.067Z,3.90
2019-02-07T03:18:46.485Z,3.97
2019-02-07T03:21:32.224Z,4.40
2019-02-07T03:24:11.367Z,4.40
2019-02-07T03:26:53.947Z,2.83
2019-02-07T03:29:40.401Z,3.50
2019-02-07T03:32:10.661Z,3.10
2019-02-07T03:34:40.877Z,4.10
2019-02-07T03:37:27.620Z,4.00
2019-02-07T03:40:03.654Z,4.17
2019-02-07T03:42:46.386Z,4.60
2019-02-07T03:45:19.360Z,3.70
2019-02-07T03:48:05.823Z,3.07
2019-02-07T03:50:48.321Z,3.43
2019-02-07T03:53:34.904Z,4.50
2019-02-07T03:56:14.385Z,3.43
2019-02-07T03:58:44.655Z,3.87
2019-02-07T04:01:23.639Z,3.60
2019-02-07T04:04:06.113Z,2.57
2019-02-07T04:06:45.322Z,2.33
2019-02-07T04:09:21.342Z,3.60
2019-02-07T04:12:00.911Z,4.80
2019-02-07T04:14:46.382Z,2.97
2019-02-07T04:17:19.693Z,3.70
2019-02-07T04:19:56.343Z,3.40
2019-02-07T04:22:29.542Z,2.90
2019-02-07T04:25:02.734Z,3.53
2019-02-07T04:27:35.930Z,3.67
2019-02-07T04:30:09.040Z,4.53
2019-02-07T04:32:51.526Z,4.60
2019-02-07T04:35:21.958Z,4.40
2019-02-07T04:37:52.196Z,3.57
2019-02-07T04:40:22.413Z,3.77
2019-02-07T04:42:52.685Z,4.00
2019-02-07T04:45:25.717Z,3.50
2019-02-07T04:48:08.320Z,3.30
2019-02-07T04:50:38.546Z,3.00
2019-02-07T04:53:08.868Z,2.40
2019-02-07T04:55:55.469Z,2.93
2019-02-07T04:58:28.921Z,3.50
2019-02-07T05:01:01.882Z,4.57
2019-02-07T05:03:48.207Z,2.43
2019-02-07T05:06:24.515Z,3.17
2019-02-07T05:09:03.545Z,3.53
2019-02-07T05:11:39.617Z,3.10
2019-02-07T05:14:21.938Z,3.07
2019-02-07T05:17:08.333Z,4.03
2019-02-07T05:19:38.830Z,3.87
2019-02-07T05:22:25.455Z,3.20
2019-02-07T05:25:04.697Z,4.43
2019-02-07T05:27:53.554Z,3.63
2019-02-07T05:30:29.802Z,2.40
2019-02-07T05:33:09.278Z,3.20
2019-02-07T05:35:45.431Z,1.93
2019-02-07T05:38:32.289Z,3.00
2019-02-07T05:41:08.326Z,1.87
2019-02-07T05:43:39.016Z,2.83
2019-02-07T05:46:09.239Z,4.80
2019-02-07T05:48:51.855Z,4.83
2019-02-07T05:51:22.179Z,5.40
2019-02-07T05:53:52.401Z,6.00
2019-02-07T05:56:25.390Z,5.23
2019-02-07T05:59:14.041Z,5.00
2019-02-07T06:01:47.151Z,4.03
2019-02-07T06:04:26.471Z,3.00
2019-02-07T06:06:59.976Z,3.57
2019-02-07T06:09:42.589Z,2.20
2019-02-07T06:12:29.288Z,2.00
2019-02-07T06:15:11.795Z,2.57
2019-02-07T06:17:47.859Z,2.87
2019-02-07T06:20:36.408Z,2.30
2019-02-07T06:23:12.774Z,2.33
2019-02-07T06:25:55.191Z,2.50
2019-02-07T06:28:41.902Z,3.00
2019-02-07T06:31:18.083Z,4.97
2019-02-07T06:33:48.411Z,5.30
2019-02-07T06:36:21.713Z,4.80
2019-02-07T06:38:57.875Z,3.30
2019-02-07T06:41:28.162Z,3.40
2019-02-07T06:44:09.853Z,4.30
2019-02-07T06:46:52.158Z,3.70
2019-02-07T06:49:24.472Z,2.73
2019-02-07T06:52:10.771Z,3.80
2019-02-07T06:54:51.499Z,4.77
2019-02-07T06:57:33.845Z,3.97
2019-02-07T07:00:16.116Z,3.43
2019-02-07T07:02:46.361Z,3.67
2019-02-07T07:05:28.398Z,4.20
2019-02-07T07:08:04.665Z,3.60
2019-02-07T07:10:51.176Z,3.70
2019-02-07T07:13:40.051Z,2.60
2019-02-07T07:16:18.624Z,3.00
2019-02-07T07:19:05.133Z,2.07
2019-02-07T07:21:47.409Z,2.50
2019-02-07T07:24:32.741Z,3.87
2019-02-07T07:27:21.343Z,4.70
2019-02-07T07:29:51.548Z,3.10
2019-02-07T07:32:23.697Z,2.83
2019-02-07T07:34:57.570Z,3.10
2019-02-07T07:37:33.939Z,3.77
2019-02-07T07:40:06.968Z,18.57
2019-02-07T07:42:53.489Z,10.83
2019-02-07T07:45:27.872Z,12.47
2019-02-07T07:48:14.682Z,18.53
2019-02-07T07:51:02.787Z,10.63
2019-02-07T07:53:38.780Z,11.90
2019-02-07T07:56:11.725Z,15.57
2019-02-07T07:58:56.897Z,13.90
2019-02-07T08:01:27.183Z,15.13
2019-02-07T08:04:03.339Z,9.53
2019-02-07T08:06:33.605Z,8.77
2019-02-07T08:09:11.236Z,8.30
2019-02-07T08:11:44.523Z,24.27
2019-02-07T08:14:14.720Z,21.70
2019-02-07T08:16:59.279Z,17.30
2019-02-07T08:19:32.371Z,9.63
2019-02-07T08:22:05.208Z,9.63
2019-02-07T08:24:35.995Z,6.10
2019-02-07T08:27:12.428Z,4.70
2019-02-07T08:29:58.820Z,5.83
2019-02-07T08:32:44.108Z,5.60
2019-02-07T08:35:14.526Z,5.40
2019-02-07T08:37:51.199Z,5.77
2019-02-07T08:40:21.981Z,5.97
2019-02-07T08:43:07.218Z,6.77
2019-02-07T08:45:40.496Z,6.40
2019-02-07T08:48:18.731Z,6.33
2019-02-07T08:51:03.793Z,5.50
2019-02-07T08:53:37.027Z,7.20
2019-02-07T08:56:12.927Z,5.50
2019-02-07T08:59:00.046Z,6.03
2019-02-07T09:01:47.066Z,6.70
2019-02-07T09:04:19.995Z,5.30
2019-02-07T09:06:50.275Z,5.33
2019-02-07T09:09:23.485Z,5.93
2019-02-07T09:11:56.579Z,6.80
2019-02-07T09:14:29.620Z,5.60
2019-02-07T09:17:00.291Z,7.60
2019-02-07T09:19:30.604Z,6.07
2019-02-07T09:22:06.877Z,6.90
2019-02-07T09:24:37.188Z,6.60
2019-02-07T09:27:07.411Z,6.60
2019-02-07T09:29:38.066Z,4.80
2019-02-07T09:32:08.280Z,4.77
2019-02-07T09:34:38.562Z,5.30
2019-02-07T09:37:08.738Z,5.20
2019-02-07T09:39:42.231Z,6.10
2019-02-07T09:42:25.181Z,5.17
2019-02-07T09:44:55.769Z,5.13
2019-02-07T09:47:28.747Z,4.97
2019-02-07T09:50:15.458Z,5.57
2019-02-07T09:52:47.291Z,5.40
2019-02-07T09:55:34.025Z,4.63
2019-02-07T09:58:19.278Z,4.90
2019-02-07T10:00:52.409Z,5.07
2019-02-07T10:03:33.880Z,5.07
2019-02-07T10:06:04.108Z,4.73
2019-02-07T10:08:37.272Z,4.50
2019-02-07T10:11:07.504Z,6.33
2019-02-07T10:13:46.509Z,5.60
2019-02-07T10:16:26.036Z,4.33
2019-02-07T10:18:59.336Z,4.37
2019-02-07T10:21:32.307Z,4.50
2019-02-07T10:24:11.335Z,4.87
2019-02-07T10:26:44.241Z,4.33
2019-02-07T10:29:34.255Z,5.03
2019-02-07T10:32:10.361Z,5.23
2019-02-07T10:34:57.170Z,5.27
2019-02-07T10:37:30.768Z,4.40
2019-02-07T10:40:16.034Z,6.90
2019-02-07T10:42:58.323Z,4.90
2019-02-07T10:45:42.165Z,4.47
2019-02-07T10:48:18.637Z,4.30
2019-02-07T10:51:00.774Z,4.63
2019-02-07T10:53:31.191Z,5.17
2019-02-07T10:56:19.782Z,5.87
2019-02-07T10:59:04.950Z,5.80
2019-02-07T11:01:37.367Z,4.20
2019-02-07T11:04:25.695Z,3.73
2019-02-07T11:06:55.963Z,4.10
2019-02-07T11:09:38.430Z,4.50
2019-02-07T11:12:18.758Z,4.37
2019-02-07T11:15:05.389Z,4.33
2019-02-07T11:17:54.206Z,4.27
2019-02-07T11:20:24.448Z,3.77
2019-02-07T11:23:08.846Z,4.03
2019-02-07T11:25:55.459Z,3.97
2019-02-07T11:28:25.637Z,3.00
2019-02-07T11:31:07.907Z,3.30
2019-02-07T11:33:41.271Z,3.43
2019-02-07T11:36:23.401Z,3.20
2019-02-07T11:38:53.604Z,3.37
2019-02-07T11:41:23.885Z,3.30
2019-02-07T11:44:10.461Z,2.63
2019-02-07T11:46:52.735Z,3.33
2019-02-07T11:49:22.947Z,2.80
2019-02-07T11:52:08.673Z,3.37
2019-02-07T11:54:41.688Z,2.90
2019-02-07T11:57:22.836Z,2.97
2019-02-07T12:00:00.413Z,3.00
2019-02-07T12:02:46.773Z,2.40
2019-02-07T12:05:26.120Z,2.73
2019-02-07T12:07:59.483Z,2.67
2019-02-07T12:10:31.313Z,3.83
2019-02-07T12:13:07.452Z,2.20
2019-02-07T12:15:37.702Z,3.73
2019-02-07T12:18:24.309Z,2.87
2019-02-07T12:20:57.298Z,3.00
2019-02-07T12:23:27.526Z,2.97
2019-02-07T12:26:00.787Z,3.23
2019-02-07T12:28:46.091Z,3.10
2019-02-07T12:31:31.634Z,2.20
2019-02-07T12:34:04.535Z,2.23
2019-02-07T12:36:39.295Z,2.50
2019-02-07T12:39:25.894Z,2.73
2019-02-07T12:42:02.158Z,3.20
2019-02-07T12:44:51.335Z,3.20
2019-02-07T12:47:33.562Z,3.33
2019-02-07T12:50:21.202Z,3.80
2019-02-07T12:53:00.682Z,3.93
2019-02-07T12:55:35.081Z,3.40
2019-02-07T12:58:12.894Z,3.30
2019-02-07T13:01:01.817Z,3.50
2019-02-07T13:03:48.269Z,3.73
2019-02-07T13:06:27.878Z,3.30
2019-02-07T13:09:04.311Z,3.33
2019-02-07T13:11:48.171Z,3.47
2019-02-07T13:14:19.619Z,2.67
2019-02-07T13:17:07.771Z,3.97
2019-02-07T13:19:51.104Z,3.10
2019-02-07T13:22:27.135Z,3.73
2019-02-07T13:25:15.685Z,3.13
2019-02-07T13:27:58.226Z,3.50
2019-02-07T13:30:43.824Z,3.47
2019-02-07T13:33:30.454Z,2.30
2019-02-07T13:36:00.773Z,3.27
2019-02-07T13:38:47.564Z,3.30
2019-02-07T13:41:17.830Z,2.93
2019-02-07T13:44:00.054Z,2.60
2019-02-07T13:46:39.550Z,2.90
2019-02-07T13:49:12.582Z,3.50
2019-02-07T13:51:49.249Z,3.30
2019-02-07T13:54:40.603Z,3.23
2019-02-07T13:57:27.405Z,2.80
2019-02-07T13:59:57.657Z,2.57
2019-02-07T14:02:41.364Z,2.60
2019-02-07T14:05:13.554Z,2.63
2019-02-07T14:07:54.958Z,2.43
2019-02-07T14:10:29.517Z,4.00
2019-02-07T14:13:17.786Z,3.10
2019-02-07T14:15:47.986Z,3.30
2019-02-07T14:18:21.182Z,3.50
2019-02-07T14:20:54.522Z,3.10
2019-02-07T14:23:40.959Z,3.63
2019-02-07T14:26:27.445Z,3.50
2019-02-07T14:28:58.080Z,4.50
2019-02-07T14:31:37.291Z,3.93
2019-02-07T14:34:24.942Z,5.20
2019-02-07T14:37:07.480Z,9.13
2019-02-07T14:39:42.146Z,11.17
2019-02-07T14:42:22.002Z,12.23
2019-02-07T14:44:55.358Z,6.20
2019-02-07T14:47:24.069Z,4.33
2019-02-07T14:49:54.304Z,3.33
2019-02-07T14:52:22.994Z,3.77
2019-02-07T14:54:51.672Z,4.60
2019-02-07T14:57:20.524Z,4.47
2019-02-07T14:59:49.162Z,3.50
2019-02-07T15:02:18.183Z,4.00
2019-02-07T15:04:46.837Z,4.40
2019-02-07T15:07:15.508Z,4.30
2019-02-07T15:09:44.187Z,3.50
2019-02-07T15:12:12.900Z,4.77
2019-02-07T15:14:41.586Z,4.00
2019-02-07T15:17:10.194Z,3.87
2019-02-07T15:19:38.877Z,2.90
2019-02-07T15:22:10.593Z,3.47
2019-02-07T15:24:39.414Z,3.43
2019-02-07T15:27:08.306Z,5.83
2019-02-07T15:29:38.499Z,4.53
2019-02-07T15:32:09.909Z,5.17
2019-02-07T15:34:38.688Z,4.33
2019-02-07T15:37:13.802Z,3.30
2019-02-07T15:39:43.390Z,2.73
2019-02-07T15:42:13.596Z,2.70
2019-02-07T15:44:42.306Z,3.37
2019-02-07T15:47:14.500Z,3.23
2019-02-07T15:49:46.229Z,3.80
2019-02-07T15:52:15.331Z,3.07
2019-02-07T15:54:47.861Z,4.33
2019-02-07T15:57:16.345Z,4.00
2019-02-07T15:59:46.553Z,3.20
2019-02-07T16:02:17.167Z,4.80
2019-02-07T16:04:51.070Z,4.23
2019-02-07T16:07:23.941Z,5.47
2019-02-07T16:09:55.878Z,4.90
2019-02-07T16:12:27.008Z,4.87
2019-02-07T16:14:57.217Z,3.57
2019-02-07T16:17:27.331Z,3.17
2019-02-07T16:19:57.618Z,3.63
2019-02-07T16:22:26.378Z,3.07
2019-02-07T16:24:59.656Z,3.97
2019-02-07T16:27:28.384Z,3.37
2019-02-07T16:29:57.056Z,4.03
2019-02-07T16:32:25.845Z,4.03
2019-02-07T16:34:57.371Z,2.50
2019-02-07T16:37:27.738Z,2.40
2019-02-07T16:39:59.231Z,3.30
2019-02-07T16:42:28.140Z,3.10
2019-02-07T16:44:59.494Z,4.00
2019-02-07T16:47:28.285Z,3.80
2019-02-07T16:49:57.188Z,5.53
2019-02-07T16:52:27.584Z,6.03
2019-02-07T16:54:57.027Z,4.90
2019-02-07T16:57:29.943Z,4.73
2019-02-07T16:59:58.992Z,3.70
2019-02-07T17:02:28.854Z,4.30
2019-02-07T17:05:01.721Z,4.53
2019-02-07T17:07:33.572Z,3.73
2019-02-07T17:10:02.492Z,3.67
2019-02-07T17:12:37.391Z,3.10
2019-02-07T17:15:09.632Z,3.57
2019-02-07T17:17:41.402Z,4.10
2019-02-07T17:20:16.111Z,4.03
2019-02-07T17:22:47.522Z,3.77
2019-02-07T17:25:15.871Z,6.17
2019-02-07T17:27:46.557Z,4.20
2019-02-07T17:30:18.982Z,3.80
2019-02-07T17:32:48.393Z,3.17
2019-02-07T17:35:18.042Z,4.70
2019-02-07T17:37:48.676Z,3.93
2019-02-07T17:40:28.190Z,4.00
2019-02-07T17:42:56.964Z,2.50
2019-02-07T17:45:27.829Z,3.10
2019-02-07T17:47:56.523Z,3.10
2019-02-07T17:50:41.249Z,3.90
2019-02-07T17:53:11.904Z,3.30
2019-02-07T17:55:40.715Z,3.87
2019-02-07T17:58:10.505Z,4.03
2019-02-07T18:00:53.165Z,3.90
2019-02-07T18:03:21.795Z,4.20
2019-02-07T18:05:50.633Z,3.80
2019-02-07T18:08:19.532Z,3.80
2019-02-07T18:10:49.072Z,5.20
2019-02-07T18:13:17.865Z,4.13
2019-02-07T18:15:46.506Z,4.50
2019-02-07T18:18:15.514Z,4.03
2019-02-07T18:20:44.234Z,3.50
2019-02-07T18:23:12.943Z,3.00
2019-02-07T18:25:41.870Z,3.90
2019-02-07T18:28:10.556Z,4.40
2019-02-07T18:30:39.189Z,4.77
2019-02-07T18:33:07.872Z,4.57
2019-02-07T18:35:38.690Z,4.53
2019-02-07T18:38:07.072Z,3.20
2019-02-07T18:40:35.814Z,3.57
2019-02-07T18:43:04.932Z,3.90
2019-02-07T18:45:37.085Z,2.97
2019-02-07T18:48:05.787Z,2.97
2019-02-07T18:50:36.785Z,3.00
2019-02-07T18:53:06.074Z,3.40
2019-02-07T18:55:34.743Z,3.37
2019-02-07T18:58:03.944Z,3.07
2019-02-07T19:00:35.184Z,3.00
2019-02-07T19:03:04.774Z,2.93
2019-02-07T19:05:33.502Z,3.47
2019-02-07T19:08:02.304Z,3.73
2019-02-07T19:10:31.101Z,3.70
2019-02-07T19:13:13.779Z,10.50
2019-02-07T19:15:46.031Z,25.67
2019-02-07T19:18:14.788Z,10.83
2019-02-07T19:20:43.499Z,7.37
2019-02-07T19:23:12.165Z,5.30
2019-02-07T19:25:41.466Z,6.23
2019-02-07T19:28:12.323Z,11.23
2019-02-07T19:30:42.495Z,10.10
2019-02-07T19:33:11.366Z,9.37
2019-02-07T19:35:40.399Z,9.80
2019-02-07T19:38:09.172Z,7.83
2019-02-07T19:40:39.606Z,8.53
2019-02-07T19:43:08.244Z,7.43
2019-02-07T19:45:37.161Z,6.13
2019-02-07T19:48:05.991Z,5.67
2019-02-07T19:50:34.788Z,6.20
2019-02-07T19:53:03.472Z,5.13
2019-02-07T19:55:35.022Z,4.30
2019-02-07T19:58:04.060Z,4.63
2019-02-07T20:00:34.073Z,4.80
2019-02-07T20:03:02.690Z,4.00
2019-02-07T20:05:31.458Z,5.17
2019-02-07T20:08:01.739Z,6.47
2019-02-07T20:10:30.764Z,6.13
2019-02-07T20:13:01.740Z,4.17
2019-02-07T20:15:51.326Z,4.80
2019-02-07T20:18:20.053Z,4.20
2019-02-07T20:20:48.721Z,3.63
2019-02-07T20:23:18.084Z,3.57
2019-02-07T20:25:48.162Z,3.67
2019-02-07T20:28:16.921Z,4.50
2019-02-07T20:30:45.908Z,4.53
2019-02-07T20:33:15.040Z,4.57
2019-02-07T20:35:43.660Z,5.60
2019-02-07T20:38:12.398Z,6.23
2019-02-07T20:40:41.799Z,5.47
2019-02-07T20:43:10.438Z,8.43
2019-02-07T20:45:39.130Z,8.50
2019-02-07T20:48:08.590Z,7.10
2019-02-07T20:50:39.332Z,5.60
2019-02-07T20:53:07.834Z,5.00
2019-02-07T20:55:36.577Z,5.07
2019-02-07T20:58:06.101Z,5.90
2019-02-07T21:00:37.187Z,5.40
2019-02-07T21:03:06.614Z,4.37
2019-02-07T21:05:35.417Z,4.50
2019-02-07T21:08:04.463Z,4.03
2019-02-07T21:10:35.768Z,4.00
2019-02-07T21:13:05.339Z,2.70
2019-02-07T21:15:33.977Z,3.03
2019-02-07T21:18:04.261Z,2.37
2019-02-07T21:20:32.971Z,3.17
2019-02-07T21:23:02.178Z,3.10
2019-02-07T21:25:45.641Z,3.80
2019-02-07T21:28:14.264Z,2.97
2019-02-07T21:30:42.923Z,2.67
2019-02-07T21:33:13.211Z,3.00
2019-02-07T21:35:41.833Z,3.63
2019-02-07T21:38:10.615Z,3.70
2019-02-07T21:40:39.291Z,2.63
2019-02-07T21:43:07.952Z,2.67
2019-02-07T21:45:36.690Z,3.07
2019-02-07T21:48:07.663Z,3.20
2019-02-07T21:50:36.332Z,2.40
2019-02-07T21:53:05.225Z,3.20
2019-02-07T21:55:36.043Z,3.13
2019-02-07T21:58:06.262Z,2.40
2019-02-07T22:00:37.426Z,3.20
2019-02-07T22:03:08.181Z,3.00
2019-02-07T22:05:36.877Z,3.80
2019-02-07T22:08:06.930Z,5.10
2019-02-07T22:10:35.740Z,4.47
2019-02-07T22:13:05.331Z,3.50
2019-02-07T22:15:33.966Z,4.57
2019-02-07T22:18:02.653Z,3.80
2019-02-07T22:20:31.576Z,2.93
2019-02-07T22:23:00.404Z,3.50
2019-02-07T22:25:29.107Z,4.27
2019-02-07T22:27:57.907Z,4.30
2019-02-07T22:30:36.190Z,3.07
2019-02-07T22:33:07.231Z,3.60
2019-02-07T22:35:35.963Z,5.20
2019-02-07T22:38:05.945Z,3.80
2019-02-07T22:40:34.640Z,3.50
2019-02-07T22:43:03.324Z,3.50
2019-02-07T22:45:32.014Z,5.00
2019-02-07T22:48:00.704Z,5.87
2019-02-07T22:50:30.783Z,7.73
2019-02-07T22:53:01.166Z,5.73
2019-02-07T22:55:30.393Z,4.67
2019-02-07T22:57:59.055Z,3.40
2019-02-07T23:00:42.391Z,3.20
2019-02-07T23:03:18.838Z,2.97
2019-02-07T23:05:47.556Z,4.00
2019-02-07T23:08:16.244Z,3.60
2019-02-07T23:10:45.387Z,4.97
2019-02-07T23:13:14.057Z,4.53
2019-02-07T23:15:42.686Z,5.30
2019-02-07T23:18:11.444Z,4.27
2019-02-07T23:20:40.059Z,6.83
2019-02-07T23:23:12.070Z,3.93
2019-02-07T23:25:41.398Z,3.97
2019-02-07T23:28:10.482Z,2.77
2019-02-07T23:30:39.496Z,4.43
2019-02-07T23:33:08.154Z,5.23
2019-02-07T23:35:36.766Z,4.77
2019-02-07T23:38:06.022Z,4.10
2019-02-07T23:40:34.635Z,4.60
2019-02-07T23:43:03.344Z,4.53
2019-02-07T23:45:31.994Z,4.47
2019-02-07T23:48:00.677Z,3.80
2019-02-07T23:50:29.379Z,5.63
2019-02-07T23:52:57.977Z,6.13
2019-02-07T23:55:26.649Z,6.10
2019-02-07T23:57:55.755Z,5.57
